WetterOnline ( http://www.wetteronline.de )

Wetter aktuell Jever

Aktuelles Wetter: Bremerhaven (11m)

6-stündlich | Neueste Meldungen
Ortszeit Temperatur Wetter
Mo, 21.05. 14:00 22.9° C wolkenlos
Mo, 21.05. 8:00 12.8° C fast wolkenlos
Mo, 21.05. 2:00 13.0° C fast wolkenlos
So, 20.05. 20:00 21.6° C fast wolkenlos
So, 20.05. 14:00 21.0° C wolkenlos
So, 20.05. 8:00 13.8° C leicht bewölkt
So, 20.05. 2:00 12.6° C fast wolkenlos
Sa, 19.05. 20:00 16.1° C leicht bewölkt
Ortszeit Temperatur Wetter
Mo, 21.05. 18:40 23.8° C wolkenlos
Mo, 21.05. 18:30 23.9° C fast wolkenlos
Mo, 21.05. 18:20 23.9° C fast wolkenlos
Mo, 21.05. 18:10 24.0° C leicht bewölkt
Mo, 21.05. 18:00 23.8° C fast wolkenlos
Mo, 21.05. 17:50 23.8° C fast wolkenlos
Mo, 21.05. 17:30 24.0° C fast wolkenlos
Mo, 21.05. 17:00 23.9° C wolkenlos
Mo, 21.05. 16:30 24.0° C wolkenlos
Mo, 21.05. 16:00 23.5° C wolkenlos
Mo, 21.05. 15:30 23.5° C fast wolkenlos
Ortszeit Relative Feuchte Sichtweite
Mo, 21.05. 14:00 30% 10 km
Mo, 21.05. 8:00 63% 10 km
Mo, 21.05. 2:00 65% 10 km
So, 20.05. 20:00 28% 10 km
So, 20.05. 14:00 17% 10 km
So, 20.05. 8:00 53% 10 km
So, 20.05. 2:00 92% 10 km
Sa, 19.05. 20:00 71% 10 km
Ortszeit Relative Feuchte Sichtweite
Mo, 21.05. 18:40 31% -
Mo, 21.05. 18:30 32% 10 km
Mo, 21.05. 18:20 32% -
Mo, 21.05. 18:10 31% -
Mo, 21.05. 18:00 31% 10 km
Mo, 21.05. 17:50 31% -
Mo, 21.05. 17:30 30% 10 km
Mo, 21.05. 17:00 30% 10 km
Mo, 21.05. 16:30 29% 9 km
Mo, 21.05. 16:00 30% 9 km
Mo, 21.05. 15:30 31% 10 km
Ortszeit Niederschlagsmenge Niederschlagsart
Mo, 21.05. 14:00 0.0 l/m2 in 6 Std. -
Mo, 21.05. 8:00 0.0 l/m2 in 12 Std. -
Mo, 21.05. 2:00 0.0 l/m2 in 6 Std. -
So, 20.05. 20:00 0.0 l/m2 in 12 Std. -
So, 20.05. 14:00 0.0 l/m2 in 6 Std. -
So, 20.05. 8:00 0.0 l/m2 in 12 Std. -
So, 20.05. 2:00 0.0 l/m2 in 6 Std. -
Sa, 19.05. 20:00 0.0 l/m2 in 12 Std. -
Ortszeit Niederschlagsmenge Niederschlagsart
Mo, 21.05. 18:40 keine Meldung -
Mo, 21.05. 18:30 0.0 l/m2 in 1 Std. -
Mo, 21.05. 18:20 keine Meldung -
Mo, 21.05. 18:10 keine Meldung -
Mo, 21.05. 18:00 0.0 l/m2 in 1 Std. -
Mo, 21.05. 17:50 keine Meldung -
Mo, 21.05. 17:30 0.0 l/m2 in 1 Std. -
Mo, 21.05. 17:00 0.0 l/m2 in 1 Std. -
Mo, 21.05. 16:30 0.0 l/m2 in 1 Std. -
Mo, 21.05. 16:00 0.0 l/m2 in 1 Std. -
Mo, 21.05. 15:30 0.0 l/m2 in 1 Std. -
Ortszeit Stärke Spitze Richtung
km/h Bft. km/h Grad Sektor
Mo, 21.05. 14:00 22 4 47 110° O
Mo, 21.05. 8:00 15 3 26 80° O
Mo, 21.05. 2:00 14 3 29 70° O
So, 20.05. 20:00 14 3 36 90° O
So, 20.05. 14:00 19 3 41 110° O
So, 20.05. 8:00 13 3 24 110° O
So, 20.05. 2:00 11 2 26 60° NO
Sa, 19.05. 20:00 11 2 22 30° NO
Ortszeit Stärke Spitze Richtung
km/h Bft. km/h Grad Sektor
Mo, 21.05. 18:40 25 4 - 80° O
Mo, 21.05. 18:30 22 4 36 90° O
Mo, 21.05. 18:20 22 4 - 90° O
Mo, 21.05. 18:10 22 4 - 80° O
Mo, 21.05. 18:00 25 4 40 80° O
Mo, 21.05. 17:50 25 4 - 80° O
Mo, 21.05. 17:30 20 4 35 90° O
Mo, 21.05. 17:00 22 4 50 130° SO
Mo, 21.05. 16:30 18 3 43 120° SO
Mo, 21.05. 16:00 22 4 47 90° O
Mo, 21.05. 15:30 24 4 44 80° O
Ortszeit Untergrenze Bedeckung Gattung
total tief tief mittel hoch
Mo, 21.05. 14:00 - 0/8 0/8 - - -
Mo, 21.05. 8:00 10500 m 2/8 0/8 - - -
Mo, 21.05. 2:00 10500 m 2/8 0/8 - - -
So, 20.05. 20:00 5400 m 1/8 1/8 - - -
So, 20.05. 14:00 5400 m 0/8 0/8 - - -
So, 20.05. 8:00 5700 m 4/8 1/8 - - -
So, 20.05. 2:00 10500 m 1/8 0/8 - - -
Sa, 19.05. 20:00 990 m 4/8 4/8 - - -
Ortszeit Bedeckungsgrad in Achtel und Wolkenuntergrenze
Mo, 21.05. 18:40 keine Wolken
Mo, 21.05. 18:30 1(5400m)
Mo, 21.05. 18:20 1(5400m)
Mo, 21.05. 18:10 2(5400m)
Mo, 21.05. 18:00 1(5400m)
Mo, 21.05. 17:50 1(5400m)
Mo, 21.05. 17:30 1(12000m)
Mo, 21.05. 17:00 keine Wolken
Mo, 21.05. 16:30 keine Wolken
Mo, 21.05. 16:00 keine Wolken
Mo, 21.05. 15:30 2(12000m)
Ortszeit Luftdruck NN (hPa) Tendenz (hPa in 3 Std.)
Mo, 21.05. 14:00 1020 - 2,1
Mo, 21.05. 8:00 1023 - 0,2
Mo, 21.05. 2:00 1024 + 0,3
So, 20.05. 20:00 1023 - 0,9
So, 20.05. 14:00 1025 - 1,1
So, 20.05. 8:00 1026 + 1,1
So, 20.05. 2:00 1025 + 0,6
Sa, 19.05. 20:00 1023 - 0,6
Ortszeit Luftdruck NN (hPa) Tendenz (hPa in 3 Std.)
Mo, 21.05. 18:40 1016 keine Meldung
Mo, 21.05. 18:30 1016 - 2,0
Mo, 21.05. 18:20 1016 keine Meldung
Mo, 21.05. 18:10 1016 keine Meldung
Mo, 21.05. 18:00 1016 - 2,2
Mo, 21.05. 17:50 1016 keine Meldung
Mo, 21.05. 17:30 1017 - 2,2
Mo, 21.05. 17:00 1017 - 2,4
Mo, 21.05. 16:30 1018 - 2,4
Mo, 21.05. 16:00 1018 - 2,4
Mo, 21.05. 15:30 1018 - 2,2
Ortszeit Schneehöhe (cm)
Mo, 21.05. 14:00 -
Mo, 21.05. 8:00 -
Mo, 21.05. 2:00 -
So, 20.05. 20:00 -
So, 20.05. 14:00 -
So, 20.05. 8:00 -
So, 20.05. 2:00 -
Sa, 19.05. 20:00 -
Ortszeit Schneehöhe (cm)
Mo, 21.05. 18:40 -
Mo, 21.05. 18:30 -
Mo, 21.05. 18:20 -
Mo, 21.05. 18:10 -
Mo, 21.05. 18:00 -
Mo, 21.05. 17:50 -
Mo, 21.05. 17:30 -
Mo, 21.05. 17:00 -
Mo, 21.05. 16:30 -
Mo, 21.05. 16:00 -
Mo, 21.05. 15:30 -
Link zu dieser Seite / Seite empfehlen

Das Wetter in ...